createdAt,value
2022-08-30T00:00:16.438Z,23.09
2022-08-30T00:02:44.840Z,22.60
2022-08-30T00:05:13.435Z,22.03
2022-08-30T00:07:41.413Z,22.15
2022-08-30T00:10:11.114Z,22.39
2022-08-30T00:12:39.331Z,22.63
2022-08-30T00:15:09.345Z,22.70
2022-08-30T00:17:40.716Z,22.54
2022-08-30T00:20:11.268Z,22.38
2022-08-30T00:22:39.859Z,22.33
2022-08-30T00:25:09.126Z,22.37
2022-08-30T00:27:38.456Z,22.38
2022-08-30T00:30:08.414Z,22.43
2022-08-30T00:32:36.439Z,22.46
2022-08-30T00:35:06.775Z,22.50
2022-08-30T00:37:34.803Z,22.57
2022-08-30T00:40:02.867Z,22.65
2022-08-30T00:42:31.024Z,22.67
2022-08-30T00:45:01.723Z,22.69
2022-08-30T00:47:29.688Z,22.66
2022-08-30T00:49:58.988Z,22.68
2022-08-30T00:52:26.982Z,22.71
2022-08-30T00:54:55.220Z,22.77
2022-08-30T00:57:23.303Z,22.78
2022-08-30T00:59:51.844Z,22.76
2022-08-30T01:02:24.041Z,22.76
2022-08-30T01:04:52.774Z,22.74
2022-08-30T01:07:20.750Z,22.60
2022-08-30T01:09:48.835Z,22.58
2022-08-30T01:12:17.389Z,22.63
2022-08-30T01:14:46.988Z,22.68
2022-08-30T01:17:16.717Z,22.72
2022-08-30T01:19:55.173Z,22.73
2022-08-30T01:22:29.106Z,22.72
2022-08-30T01:25:01.255Z,22.70
2022-08-30T01:27:32.245Z,22.68
2022-08-30T01:30:00.439Z,22.30
2022-08-30T01:32:30.194Z,21.84
2022-08-30T01:34:58.856Z,21.95
2022-08-30T01:37:30.273Z,22.08
2022-08-30T01:39:59.751Z,22.05
2022-08-30T01:42:28.425Z,21.90
2022-08-30T01:44:56.476Z,21.88
2022-08-30T01:47:24.428Z,21.91
2022-08-30T01:49:52.550Z,21.98
2022-08-30T01:52:21.382Z,22.05
2022-08-30T01:54:50.269Z,22.09
2022-08-30T01:57:22.589Z,22.19
2022-08-30T01:59:51.178Z,22.24
2022-08-30T02:02:22.854Z,22.25
2022-08-30T02:04:51.821Z,22.24
2022-08-30T02:07:20.101Z,22.26
2022-08-30T02:09:48.206Z,22.28
2022-08-30T02:12:16.257Z,22.30
2022-08-30T02:14:45.732Z,22.29
2022-08-30T02:17:15.505Z,22.26
2022-08-30T02:19:44.627Z,22.24
2022-08-30T02:22:12.655Z,22.26
2022-08-30T02:24:40.765Z,22.27
2022-08-30T02:27:08.856Z,22.25
2022-08-30T02:29:36.946Z,22.25
2022-08-30T02:32:06.754Z,22.25
2022-08-30T02:34:34.746Z,22.22
2022-08-30T02:37:03.064Z,22.24
2022-08-30T02:39:31.021Z,22.27
2022-08-30T02:41:59.034Z,22.22
2022-08-30T02:44:27.038Z,22.21
2022-08-30T02:46:55.000Z,22.22
2022-08-30T02:49:33.052Z,22.24
2022-08-30T02:52:02.069Z,22.25
2022-08-30T02:54:33.014Z,22.23
2022-08-30T02:57:04.617Z,22.21
2022-08-30T02:59:33.219Z,22.17
2022-08-30T03:02:01.347Z,22.22
2022-08-30T03:04:30.752Z,22.28
2022-08-30T03:06:59.120Z,22.26
2022-08-30T03:09:27.177Z,22.22
2022-08-30T03:11:55.192Z,22.13
2022-08-30T03:14:23.237Z,22.13
2022-08-30T03:16:51.554Z,22.16
2022-08-30T03:19:19.651Z,22.16
2022-08-30T03:21:49.207Z,22.12
2022-08-30T03:24:17.199Z,22.02
2022-08-30T03:29:15.199Z,20.87
2022-08-30T03:31:52.909Z,20.93
2022-08-30T03:34:22.752Z,21.06
2022-08-30T03:36:53.441Z,21.38
2022-08-30T03:39:22.940Z,21.51
2022-08-30T03:41:51.957Z,21.56
2022-08-30T03:44:20.557Z,21.66
2022-08-30T03:46:49.661Z,21.68
2022-08-30T03:49:17.921Z,21.69
2022-08-30T03:51:45.919Z,21.72
2022-08-30T03:54:15.562Z,21.73
2022-08-30T03:56:43.558Z,21.65
2022-08-30T03:59:11.584Z,21.62
2022-08-30T04:01:39.615Z,21.59
2022-08-30T04:04:07.551Z,21.64
2022-08-30T04:06:35.839Z,21.67
2022-08-30T04:09:03.974Z,21.70
2022-08-30T04:11:33.700Z,21.65
2022-08-30T04:14:01.770Z,21.63
2022-08-30T04:16:29.792Z,21.63
2022-08-30T04:18:57.945Z,21.68
2022-08-30T04:21:25.933Z,21.67
2022-08-30T04:23:53.962Z,21.62
2022-08-30T04:26:22.191Z,21.40
2022-08-30T04:28:51.553Z,21.42
2022-08-30T04:31:20.114Z,21.54
2022-08-30T04:33:48.098Z,21.63
2022-08-30T04:36:16.072Z,21.63
2022-08-30T04:38:44.291Z,21.63
2022-08-30T04:41:16.349Z,21.65
2022-08-30T04:43:45.697Z,21.67
2022-08-30T04:46:15.335Z,21.71
2022-08-30T04:48:43.348Z,21.71
2022-08-30T04:51:14.303Z,21.64
2022-08-30T04:53:42.779Z,21.52
2022-08-30T04:56:11.960Z,20.97
2022-08-30T04:58:40.110Z,20.70
2022-08-30T05:01:15.186Z,20.86
2022-08-30T05:03:47.273Z,20.85
2022-08-30T05:06:16.889Z,20.94
2022-08-30T05:08:46.232Z,21.01
2022-08-30T05:11:16.166Z,21.08
2022-08-30T05:13:44.495Z,21.10
2022-08-30T05:16:17.703Z,21.09
2022-08-30T05:18:48.988Z,21.04
2022-08-30T05:21:19.189Z,21.06
2022-08-30T05:23:47.958Z,21.15
2022-08-30T05:26:18.371Z,21.23
2022-08-30T05:28:47.063Z,21.27
2022-08-30T05:31:20.953Z,21.28
2022-08-30T05:33:51.935Z,21.29
2022-08-30T05:36:22.087Z,21.37
2022-08-30T05:38:50.240Z,21.36
2022-08-30T05:41:20.466Z,21.30
2022-08-30T05:43:49.290Z,21.25
2022-08-30T05:46:19.582Z,21.09
2022-08-30T05:48:47.875Z,20.97
2022-08-30T05:51:20.603Z,21.07
2022-08-30T05:53:49.725Z,21.13
2022-08-30T05:56:19.834Z,21.20
2022-08-30T05:58:48.258Z,21.20
2022-08-30T06:01:22.553Z,21.25
2022-08-30T06:03:51.064Z,21.30
2022-08-30T06:06:20.413Z,21.48
2022-08-30T06:08:49.085Z,21.63
2022-08-30T06:11:19.657Z,21.69
2022-08-30T06:13:48.621Z,21.71
2022-08-30T06:16:19.117Z,21.69
2022-08-30T06:18:47.458Z,21.68
2022-08-30T06:21:17.742Z,21.69
2022-08-30T06:23:47.150Z,21.73
2022-08-30T06:26:15.825Z,21.75
2022-08-30T06:28:44.261Z,21.77
2022-08-30T06:31:15.531Z,21.80
2022-08-30T06:33:44.139Z,21.85
2022-08-30T06:36:14.660Z,21.90
2022-08-30T06:38:42.801Z,21.91
2022-08-30T06:41:14.802Z,21.95
2022-08-30T06:43:48.659Z,22.06
2022-08-30T06:46:19.771Z,22.24
2022-08-30T06:48:48.578Z,22.43
2022-08-30T06:51:20.201Z,22.62
2022-08-30T06:53:48.915Z,22.70
2022-08-30T06:56:20.029Z,22.78
2022-08-30T06:58:48.337Z,22.86
2022-08-30T07:01:19.526Z,22.89
2022-08-30T07:03:47.884Z,22.93
2022-08-30T07:06:16.423Z,22.98
2022-08-30T07:08:47.605Z,23.05
2022-08-30T07:11:16.557Z,23.09
2022-08-30T07:13:45.997Z,23.29
2022-08-30T07:16:15.355Z,23.46
2022-08-30T07:18:54.841Z,23.50
2022-08-30T07:21:25.748Z,23.45
2022-08-30T07:23:54.913Z,23.45
2022-08-30T07:26:25.914Z,23.44
2022-08-30T07:28:56.433Z,23.44
2022-08-30T07:31:25.508Z,23.43
2022-08-30T07:33:53.943Z,23.43
2022-08-30T07:36:22.928Z,23.40
2022-08-30T07:38:52.983Z,23.35
2022-08-30T07:41:22.673Z,23.32
2022-08-30T07:43:50.793Z,23.33
2022-08-30T07:46:20.518Z,23.31
2022-08-30T07:48:49.042Z,23.35
2022-08-30T07:51:19.670Z,23.36
2022-08-30T07:53:47.878Z,23.37
2022-08-30T07:56:17.112Z,23.46
2022-08-30T07:58:45.166Z,23.45
2022-08-30T08:01:14.713Z,23.55
2022-08-30T08:03:45.367Z,23.63
2022-08-30T08:06:15.967Z,23.72
2022-08-30T08:08:45.783Z,23.91
2022-08-30T08:11:16.695Z,23.99
2022-08-30T08:13:52.653Z,24.06
2022-08-30T08:16:23.230Z,24.15
2022-08-30T08:18:53.236Z,24.13
2022-08-30T08:21:21.580Z,23.96
2022-08-30T08:23:49.756Z,24.04
2022-08-30T08:26:18.216Z,24.11
2022-08-30T08:28:47.172Z,24.13
2022-08-30T08:31:16.734Z,24.23
2022-08-30T08:33:44.782Z,24.33
2022-08-30T08:36:14.152Z,24.45
2022-08-30T08:38:42.838Z,24.44
2022-08-30T08:41:21.382Z,24.35
2022-08-30T08:43:49.364Z,24.31
2022-08-30T08:46:27.258Z,24.38
2022-08-30T08:49:00.361Z,24.36
2022-08-30T08:51:52.384Z,24.38
2022-08-30T08:54:25.813Z,24.39
2022-08-30T08:56:54.407Z,24.43
2022-08-30T08:59:22.544Z,24.48
2022-08-30T09:01:51.167Z,24.50
2022-08-30T09:04:24.157Z,24.61
2022-08-30T09:06:58.461Z,24.69
2022-08-30T09:09:31.071Z,24.75
2022-08-30T09:11:59.512Z,24.66
2022-08-30T09:14:35.982Z,24.56
2022-08-30T09:17:08.448Z,24.64
2022-08-30T09:19:43.277Z,24.74
2022-08-30T09:22:27.905Z,24.77
2022-08-30T09:25:01.922Z,24.77
2022-08-30T09:27:33.973Z,24.83
2022-08-30T09:30:05.673Z,24.85
2022-08-30T09:32:40.397Z,24.82
2022-08-30T09:35:11.795Z,24.86
2022-08-30T09:37:50.100Z,24.85
2022-08-30T09:40:27.897Z,24.81
2022-08-30T09:43:08.509Z,24.79
2022-08-30T09:45:38.666Z,24.76
2022-08-30T09:48:24.207Z,24.84
2022-08-30T09:51:00.086Z,24.86
2022-08-30T09:53:35.504Z,24.90
2022-08-30T09:56:10.100Z,24.82
2022-08-30T09:58:58.736Z,24.78
2022-08-30T10:01:31.674Z,24.74
2022-08-30T10:04:06.883Z,24.77
2022-08-30T10:06:42.063Z,24.79
2022-08-30T10:09:20.433Z,24.87
2022-08-30T10:11:57.797Z,24.94
2022-08-30T10:14:52.164Z,25.04
2022-08-30T10:17:35.007Z,25.17
2022-08-30T10:20:16.513Z,25.47
2022-08-30T10:22:50.288Z,25.80
2022-08-30T10:25:24.198Z,25.75
2022-08-30T10:27:56.884Z,25.39
2022-08-30T10:30:24.929Z,25.32
2022-08-30T10:32:59.645Z,25.24
2022-08-30T10:35:38.336Z,25.28
2022-08-30T10:38:11.582Z,25.51
2022-08-30T10:41:02.906Z,25.79
2022-08-30T10:43:39.153Z,25.86
2022-08-30T10:46:15.508Z,25.72
2022-08-30T10:48:47.566Z,25.82
2022-08-30T10:51:21.508Z,25.95
2022-08-30T10:53:56.079Z,26.18
2022-08-30T10:56:29.512Z,26.25
2022-08-30T10:58:59.826Z,26.32
2022-08-30T11:01:46.500Z,26.29
2022-08-30T11:04:44.513Z,26.19
2022-08-30T11:07:25.703Z,26.34
2022-08-30T11:10:11.620Z,26.46
2022-08-30T11:12:54.724Z,26.62
2022-08-30T11:15:25.810Z,26.59
2022-08-30T11:18:01.769Z,26.53
2022-08-30T11:20:34.640Z,26.69
2022-08-30T11:23:36.166Z,26.89
2022-08-30T11:26:06.756Z,27.11
2022-08-30T11:29:06.579Z,27.03
2022-08-30T11:31:40.905Z,27.13
2022-08-30T11:34:09.959Z,27.14
2022-08-30T11:37:10.102Z,27.11
2022-08-30T11:39:54.346Z,27.09
2022-08-30T11:42:42.934Z,26.69
2022-08-30T11:45:49.101Z,26.67
2022-08-30T11:48:46.979Z,26.74
2022-08-30T11:52:26.658Z,26.81
2022-08-30T11:55:03.329Z,26.95
2022-08-30T11:57:39.404Z,26.73
2022-08-30T12:00:11.173Z,26.89
2022-08-30T12:02:53.590Z,26.82
2022-08-30T12:06:00.578Z,26.86
2022-08-30T12:08:48.593Z,26.69
2022-08-30T12:12:02.496Z,26.54
2022-08-30T12:14:48.967Z,26.54
2022-08-30T12:17:44.000Z,26.53
2022-08-30T12:20:23.014Z,26.48
2022-08-30T12:22:54.517Z,26.59
2022-08-30T12:25:31.402Z,26.76
2022-08-30T12:28:17.903Z,26.94
2022-08-30T12:30:46.667Z,26.97
2022-08-30T12:33:29.121Z,26.95
2022-08-30T12:35:59.374Z,26.92
2022-08-30T12:38:30.920Z,26.85
2022-08-30T12:41:05.700Z,26.82
2022-08-30T12:43:40.445Z,26.66
2022-08-30T12:46:12.844Z,26.67
2022-08-30T12:48:45.193Z,26.76
2022-08-30T12:51:29.366Z,26.88
2022-08-30T12:54:14.297Z,27.05
2022-08-30T12:56:58.042Z,27.17
2022-08-30T12:59:54.178Z,27.18
2022-08-30T13:02:27.869Z,27.18
2022-08-30T13:04:58.567Z,27.21
2022-08-30T13:07:29.892Z,27.25
2022-08-30T13:10:06.998Z,27.34
2022-08-30T13:12:38.311Z,27.31
2022-08-30T13:15:16.527Z,27.31
2022-08-30T13:17:45.702Z,27.32
2022-08-30T13:20:27.101Z,27.38
2022-08-30T13:23:10.033Z,27.56
2022-08-30T13:25:40.949Z,27.82
2022-08-30T13:28:09.783Z,27.97
2022-08-30T13:30:38.530Z,28.17
2022-08-30T13:33:06.523Z,28.16
2022-08-30T13:35:34.530Z,27.98
2022-08-30T13:38:04.268Z,27.58
2022-08-30T13:40:32.658Z,27.47
2022-08-30T13:43:03.627Z,27.34
2022-08-30T13:45:47.292Z,27.39
2022-08-30T13:48:17.517Z,27.48
2022-08-30T13:50:53.489Z,27.54
2022-08-30T13:53:51.964Z,27.65
2022-08-30T13:56:14.000Z,27.60
2022-08-30T13:58:43.636Z,27.54
2022-08-30T14:01:14.497Z,27.53
2022-08-30T14:06:34.095Z,28.42
2022-08-30T14:09:04.705Z,28.68
2022-08-30T14:11:33.022Z,28.96
2022-08-30T14:14:39.058Z,29.05
2022-08-30T14:16:52.636Z,29.33
2022-08-30T14:19:21.275Z,29.33
2022-08-30T14:21:49.450Z,29.47
2022-08-30T14:24:20.223Z,29.58
2022-08-30T14:26:51.525Z,29.56
2022-08-30T14:29:23.029Z,29.62
2022-08-30T14:31:52.572Z,29.34
2022-08-30T14:34:21.597Z,29.07
2022-08-30T14:36:49.626Z,28.69
2022-08-30T14:39:22.873Z,28.38
2022-08-30T14:41:53.603Z,28.23
2022-08-30T14:44:26.107Z,28.34
2022-08-30T14:46:54.546Z,28.45
2022-08-30T14:49:23.378Z,28.80
2022-08-30T14:51:52.121Z,29.25
2022-08-30T14:54:25.578Z,29.16
2022-08-30T14:56:54.386Z,29.05
2022-08-30T14:59:24.772Z,29.22
2022-08-30T15:01:52.884Z,29.31
2022-08-30T15:04:21.715Z,29.14
2022-08-30T15:06:50.390Z,29.13
2022-08-30T15:09:23.266Z,29.17
2022-08-30T15:11:53.086Z,29.06
2022-08-30T15:14:24.716Z,29.06
2022-08-30T15:16:55.155Z,28.90
2022-08-30T15:19:23.280Z,29.06
2022-08-30T15:21:51.738Z,29.14
2022-08-30T15:24:24.861Z,29.22
2022-08-30T15:26:58.118Z,29.32
2022-08-30T15:29:30.534Z,29.20
2022-08-30T15:32:01.017Z,29.52
2022-08-30T15:34:29.076Z,29.77
2022-08-30T15:36:57.515Z,30.06
2022-08-30T15:39:25.797Z,30.30
2022-08-30T15:42:00.291Z,30.47
2022-08-30T15:44:31.393Z,30.66
2022-08-30T15:46:59.953Z,30.63
2022-08-30T15:49:28.074Z,30.87
2022-08-30T15:52:00.798Z,30.80
2022-08-30T15:54:29.693Z,30.29
2022-08-30T15:57:00.093Z,29.98
2022-08-30T15:59:29.341Z,30.02
2022-08-30T16:01:59.590Z,30.06
2022-08-30T16:04:27.702Z,29.58
2022-08-30T16:06:56.379Z,29.24
2022-08-30T16:09:26.473Z,28.91
2022-08-30T16:11:58.125Z,28.78
2022-08-30T16:14:27.609Z,29.01
2022-08-30T16:16:55.820Z,29.04
2022-08-30T16:19:25.712Z,29.00
2022-08-30T16:21:53.982Z,28.85
2022-08-30T16:24:23.530Z,28.60
2022-08-30T16:26:52.059Z,28.40
2022-08-30T16:29:20.129Z,28.15
2022-08-30T16:31:48.318Z,27.99
2022-08-30T16:34:20.311Z,27.82
2022-08-30T16:36:49.863Z,27.65
2022-08-30T16:39:18.508Z,27.53
2022-08-30T16:41:46.726Z,27.40
2022-08-30T16:44:17.871Z,27.22
2022-08-30T16:46:52.978Z,27.20
2022-08-30T16:49:23.196Z,27.06
2022-08-30T16:51:55.616Z,27.05
2022-08-30T16:54:24.741Z,27.01
2022-08-30T16:56:53.107Z,26.89
2022-08-30T16:59:21.199Z,26.84
2022-08-30T17:01:49.666Z,26.76
2022-08-30T17:04:19.458Z,26.59
2022-08-30T17:06:49.625Z,26.53
2022-08-30T17:09:20.213Z,26.30
2022-08-30T17:11:49.323Z,26.37
2022-08-30T17:14:21.482Z,24.83
2022-08-30T17:16:51.548Z,22.04
2022-08-30T17:19:26.909Z,19.10
2022-08-30T17:21:58.221Z,18.06
2022-08-30T17:24:28.083Z,17.82
2022-08-30T17:26:56.098Z,17.78
2022-08-30T17:29:26.449Z,17.83
2022-08-30T17:31:54.995Z,17.94
2022-08-30T17:34:24.170Z,18.26
2022-08-30T17:36:57.158Z,18.77
2022-08-30T17:39:27.420Z,19.08
2022-08-30T17:41:56.486Z,19.38
2022-08-30T17:44:29.027Z,19.24
2022-08-30T17:46:58.402Z,19.45
2022-08-30T17:49:28.811Z,19.46
2022-08-30T17:51:58.229Z,19.78
2022-08-30T17:54:29.009Z,19.65
2022-08-30T17:56:57.515Z,19.45
2022-08-30T17:59:26.601Z,19.30
2022-08-30T18:01:57.473Z,19.44
2022-08-30T18:04:27.154Z,19.54
2022-08-30T18:06:55.621Z,19.78
2022-08-30T18:09:24.668Z,19.98
2022-08-30T18:11:56.471Z,20.02
2022-08-30T18:14:25.295Z,20.12
2022-08-30T18:16:54.497Z,20.33
2022-08-30T18:19:23.493Z,20.49
2022-08-30T18:21:51.568Z,20.63
2022-08-30T18:24:19.577Z,20.63
2022-08-30T18:26:47.654Z,20.62
2022-08-30T18:29:25.996Z,20.67
2022-08-30T18:31:57.365Z,20.61
2022-08-30T18:34:25.416Z,20.63
2022-08-30T18:36:54.150Z,20.79
2022-08-30T18:39:23.106Z,20.93
2022-08-30T18:41:52.965Z,20.83
2022-08-30T18:44:29.104Z,20.88
2022-08-30T18:47:13.385Z,20.91
2022-08-30T18:49:42.673Z,20.97
2022-08-30T18:52:11.746Z,21.02
2022-08-30T18:54:41.125Z,21.08
2022-08-30T18:57:09.887Z,21.05
2022-08-30T18:59:41.931Z,20.95
2022-08-30T19:02:13.122Z,20.96
2022-08-30T19:07:34.220Z,21.01
2022-08-30T19:10:07.088Z,21.02
2022-08-30T19:12:35.049Z,21.01
2022-08-30T19:15:10.961Z,20.96
2022-08-30T19:17:41.695Z,20.93
2022-08-30T19:20:10.948Z,20.85
2022-08-30T19:23:09.010Z,20.80
2022-08-30T19:25:27.649Z,20.88
2022-08-30T19:27:57.026Z,20.92
2022-08-30T19:30:29.858Z,20.87
2022-08-30T19:32:58.563Z,20.77
2022-08-30T19:35:30.078Z,20.75
2022-08-30T19:37:58.423Z,20.69
2022-08-30T19:40:26.626Z,20.70
2022-08-30T19:42:54.838Z,20.69
2022-08-30T19:45:23.818Z,20.67
2022-08-30T19:47:54.016Z,20.79
2022-08-30T19:50:22.992Z,20.88
2022-08-30T19:52:54.738Z,20.81
2022-08-30T19:55:29.992Z,20.77
2022-08-30T19:57:58.424Z,20.73
2022-08-30T20:00:26.489Z,20.76
2022-08-30T20:02:55.899Z,20.80
2022-08-30T20:05:24.311Z,20.83
2022-08-30T20:07:52.565Z,20.85
2022-08-30T20:10:25.844Z,20.91
2022-08-30T20:12:54.173Z,20.90
2022-08-30T20:15:22.920Z,20.89
2022-08-30T20:18:05.682Z,20.95
2022-08-30T20:20:36.960Z,20.96
2022-08-30T20:23:05.879Z,20.94
2022-08-30T20:24:31.765Z,21.02
2022-08-30T20:25:34.109Z,20.92
2022-08-30T20:28:02.096Z,20.76
2022-08-30T20:30:30.285Z,20.79
2022-08-30T20:32:58.775Z,20.73
2022-08-30T20:35:28.405Z,20.73
2022-08-30T20:37:57.808Z,20.78
2022-08-30T20:40:25.823Z,20.67
2022-08-30T20:42:54.662Z,20.65
2022-08-30T20:45:22.823Z,20.58
2022-08-30T20:47:53.047Z,20.65
2022-08-30T20:50:21.332Z,20.68
2022-08-30T20:52:49.274Z,20.69
2022-08-30T20:55:18.629Z,20.52
2022-08-30T20:57:46.594Z,20.27
2022-08-30T21:00:15.476Z,20.27
2022-08-30T21:02:46.837Z,20.51
2022-08-30T21:05:17.754Z,20.58
2022-08-30T21:07:46.839Z,20.61
2022-08-30T21:10:21.165Z,20.65
2022-08-30T21:12:53.414Z,20.64
2022-08-30T21:15:36.873Z,20.65
2022-08-30T21:18:05.938Z,20.68
2022-08-30T21:20:33.951Z,20.66
2022-08-30T21:23:01.919Z,20.55
2022-08-30T21:25:30.987Z,20.46
2022-08-30T21:28:00.531Z,20.45
2022-08-30T21:30:28.610Z,20.51
2022-08-30T21:33:00.072Z,20.52
2022-08-30T21:35:46.113Z,20.57
2022-08-30T21:38:14.305Z,20.59
2022-08-30T21:40:42.552Z,20.54
2022-08-30T21:43:12.054Z,20.42
2022-08-30T21:45:40.555Z,20.46
2022-08-30T21:48:09.716Z,20.49
2022-08-30T21:50:39.948Z,20.48
2022-08-30T21:53:07.933Z,20.18
2022-08-30T21:55:35.883Z,19.98
2022-08-30T21:58:03.915Z,19.85
2022-08-30T22:00:33.685Z,19.91
2022-08-30T22:03:01.803Z,20.15
2022-08-30T22:05:29.871Z,20.27
2022-08-30T22:07:57.933Z,20.37
2022-08-30T22:10:30.010Z,20.50
2022-08-30T22:13:00.874Z,20.61
2022-08-30T22:15:28.950Z,20.58
2022-08-30T22:17:58.903Z,20.50
2022-08-30T22:20:30.327Z,20.50
2022-08-30T22:22:58.772Z,20.56
2022-08-30T22:25:26.768Z,20.58
2022-08-30T22:27:54.747Z,20.25
2022-08-30T22:30:22.715Z,19.97
2022-08-30T22:32:50.695Z,19.61
2022-08-30T22:35:22.076Z,19.29
2022-08-30T22:37:53.266Z,19.40
2022-08-30T22:40:22.850Z,19.73
2022-08-30T22:42:50.844Z,20.02
2022-08-30T22:45:19.028Z,20.18
2022-08-30T22:47:47.207Z,20.30
2022-08-30T22:50:15.161Z,20.38
2022-08-30T22:52:44.655Z,20.35
2022-08-30T22:55:12.664Z,20.38
2022-08-30T22:57:41.685Z,20.37
2022-08-30T23:00:15.147Z,20.30
2022-08-30T23:02:43.850Z,19.75
2022-08-30T23:05:12.647Z,19.39
2022-08-30T23:07:40.757Z,19.47
2022-08-30T23:10:12.262Z,19.70
2022-08-30T23:12:41.224Z,19.80
2022-08-30T23:15:12.582Z,19.78
2022-08-30T23:17:40.630Z,19.77
2022-08-30T23:20:09.696Z,19.96
2022-08-30T23:22:37.860Z,20.10
2022-08-30T23:25:25.372Z,20.18
2022-08-30T23:28:17.497Z,20.18
2022-08-30T23:31:06.430Z,20.17
2022-08-30T23:33:51.627Z,20.17
2022-08-30T23:36:37.170Z,20.10
2022-08-30T23:39:23.215Z,20.12
2022-08-30T23:42:08.748Z,20.14
2022-08-30T23:44:55.907Z,20.16
2022-08-30T23:47:41.442Z,20.14
2022-08-30T23:50:27.517Z,20.15
2022-08-30T23:53:12.801Z,20.25
2022-08-30T23:55:59.118Z,20.24
2022-08-30T23:58:44.892Z,20.21
